sensor_id;sensor_type;location;lat;lon;timestamp;P1;durP1;ratioP1;P2;durP2;ratioP2
44642;SDS011;33930;-34.276;150.954;2022-12-22T00:00:00;4.40;;;1.10;;
44642;SDS011;33930;-34.276;150.954;2022-12-22T00:02:47;7.07;;;0.93;;
44642;SDS011;33930;-34.276;150.954;2022-12-22T00:05:32;11.98;;;1.65;;
44642;SDS011;33930;-34.276;150.954;2022-12-22T00:08:17;5.63;;;0.98;;
44642;SDS011;33930;-34.276;150.954;2022-12-22T00:11:05;9.68;;;2.05;;
44642;SDS011;33930;-34.276;150.954;2022-12-22T00:13:54;6.43;;;0.90;;
44642;SDS011;33930;-34.276;150.954;2022-12-22T00:16:39;6.00;;;0.80;;
44642;SDS011;33930;-34.276;150.954;2022-12-22T00:19:25;11.65;;;1.50;;
44642;SDS011;33930;-34.276;150.954;2022-12-22T00:22:19;9.25;;;1.60;;
44642;SDS011;33930;-34.276;150.954;2022-12-22T00:25:06;15.10;;;1.50;;
44642;SDS011;33930;-34.276;150.954;2022-12-22T00:27:55;9.85;;;1.13;;
44642;SDS011;33930;-34.276;150.954;2022-12-22T00:30:40;15.32;;;1.20;;
44642;SDS011;33930;-34.276;150.954;2022-12-22T00:33:26;8.52;;;1.27;;
44642;SDS011;33930;-34.276;150.954;2022-12-22T00:36:11;19.00;;;1.77;;
44642;SDS011;33930;-34.276;150.954;2022-12-22T00:38:57;8.20;;;1.02;;
44642;SDS011;33930;-34.276;150.954;2022-12-22T00:41:42;6.38;;;1.40;;
44642;SDS011;33930;-34.276;150.954;2022-12-22T00:44:27;10.18;;;1.30;;
44642;SDS011;33930;-34.276;150.954;2022-12-22T00:47:19;10.82;;;1.65;;
44642;SDS011;33930;-34.276;150.954;2022-12-22T00:50:09;6.30;;;0.98;;
44642;SDS011;33930;-34.276;150.954;2022-12-22T00:52:55;11.52;;;1.60;;
44642;SDS011;33930;-34.276;150.954;2022-12-22T00:55:42;5.82;;;0.88;;
44642;SDS011;33930;-34.276;150.954;2022-12-22T00:58:27;9.32;;;1.33;;
44642;SDS011;33930;-34.276;150.954;2022-12-22T01:01:12;10.20;;;1.30;;
44642;SDS011;33930;-34.276;150.954;2022-12-22T01:03:57;9.45;;;1.92;;
44642;SDS011;33930;-34.276;150.954;2022-12-22T01:06:43;9.80;;;0.98;;
44642;SDS011;33930;-34.276;150.954;2022-12-22T01:09:28;7.00;;;1.52;;
44642;SDS011;33930;-34.276;150.954;2022-12-22T01:12:18;13.23;;;1.40;;
44642;SDS011;33930;-34.276;150.954;2022-12-22T01:15:10;14.98;;;1.77;;
44642;SDS011;33930;-34.276;150.954;2022-12-22T01:17:57;8.13;;;1.10;;
44642;SDS011;33930;-34.276;150.954;2022-12-22T01:20:42;8.80;;;1.42;;
44642;SDS011;33930;-34.276;150.954;2022-12-22T01:23:28;8.98;;;1.50;;
44642;SDS011;33930;-34.276;150.954;2022-12-22T01:26:13;7.78;;;1.13;;
44642;SDS011;33930;-34.276;150.954;2022-12-22T01:28:59;6.45;;;0.90;;
44642;SDS011;33930;-34.276;150.954;2022-12-22T01:31:44;12.15;;;1.38;;
44642;SDS011;33930;-34.276;150.954;2022-12-22T01:34:29;4.07;;;0.90;;
44642;SDS011;33930;-34.276;150.954;2022-12-22T01:37:14;6.68;;;1.00;;
44642;SDS011;33930;-34.276;150.954;2022-12-22T01:40:00;6.13;;;1.20;;
44642;SDS011;33930;-34.276;150.954;2022-12-22T01:42:45;6.53;;;1.15;;
44642;SDS011;33930;-34.276;150.954;2022-12-22T01:45:31;7.22;;;1.27;;
44642;SDS011;33930;-34.276;150.954;2022-12-22T01:48:23;3.55;;;0.60;;
44642;SDS011;33930;-34.276;150.954;2022-12-22T01:51:22;4.88;;;0.65;;
44642;SDS011;33930;-34.276;150.954;2022-12-22T01:54:10;11.13;;;2.00;;
44642;SDS011;33930;-34.276;150.954;2022-12-22T01:56:56;3.67;;;1.02;;
44642;SDS011;33930;-34.276;150.954;2022-12-22T01:59:42;7.63;;;1.10;;
44642;SDS011;33930;-34.276;150.954;2022-12-22T02:02:28;6.95;;;1.27;;
44642;SDS011;33930;-34.276;150.954;2022-12-22T02:05:15;9.88;;;1.33;;
44642;SDS011;33930;-34.276;150.954;2022-12-22T02:11:34;6.70;;;0.70;;
44642;SDS011;33930;-34.276;150.954;2022-12-22T02:14:45;2.88;;;0.98;;
44642;SDS011;33930;-34.276;150.954;2022-12-22T02:20:59;4.78;;;0.77;;
44642;SDS011;33930;-34.276;150.954;2022-12-22T02:27:05;7.43;;;0.80;;
44642;SDS011;33930;-34.276;150.954;2022-12-22T02:29:52;3.83;;;0.77;;
44642;SDS011;33930;-34.276;150.954;2022-12-22T02:32:41;3.58;;;0.57;;
44642;SDS011;33930;-34.276;150.954;2022-12-22T02:35:29;5.20;;;1.23;;
44642;SDS011;33930;-34.276;150.954;2022-12-22T02:39:04;7.82;;;1.23;;
44642;SDS011;33930;-34.276;150.954;2022-12-22T02:41:49;5.72;;;1.05;;
44642;SDS011;33930;-34.276;150.954;2022-12-22T02:44:56;7.05;;;0.70;;
44642;SDS011;33930;-34.276;150.954;2022-12-22T02:47:51;5.07;;;1.20;;
44642;SDS011;33930;-34.276;150.954;2022-12-22T02:50:57;9.45;;;1.05;;
44642;SDS011;33930;-34.276;150.954;2022-12-22T02:53:53;3.42;;;0.28;;
44642;SDS011;33930;-34.276;150.954;2022-12-22T02:56:40;5.07;;;0.75;;
44642;SDS011;33930;-34.276;150.954;2022-12-22T02:59:27;9.32;;;1.10;;
44642;SDS011;33930;-34.276;150.954;2022-12-22T03:02:12;4.13;;;0.60;;
44642;SDS011;33930;-34.276;150.954;2022-12-22T03:04:58;5.43;;;1.20;;
44642;SDS011;33930;-34.276;150.954;2022-12-22T03:07:43;8.88;;;1.25;;
44642;SDS011;33930;-34.276;150.954;2022-12-22T03:10:28;8.35;;;1.02;;
44642;SDS011;33930;-34.276;150.954;2022-12-22T03:13:13;6.55;;;0.82;;
44642;SDS011;33930;-34.276;150.954;2022-12-22T03:15:58;7.65;;;1.38;;
44642;SDS011;33930;-34.276;150.954;2022-12-22T03:18:44;8.95;;;1.00;;
44642;SDS011;33930;-34.276;150.954;2022-12-22T03:21:29;7.78;;;0.75;;
44642;SDS011;33930;-34.276;150.954;2022-12-22T03:24:14;12.38;;;1.40;;
44642;SDS011;33930;-34.276;150.954;2022-12-22T03:26:59;5.45;;;1.40;;
44642;SDS011;33930;-34.276;150.954;2022-12-22T03:29:26;9.10;;;1.75;;
44642;SDS011;33930;-34.276;150.954;2022-12-22T03:31:54;7.75;;;1.50;;
44642;SDS011;33930;-34.276;150.954;2022-12-22T03:34:21;5.00;;;1.30;;
44642;SDS011;33930;-34.276;150.954;2022-12-22T03:36:48;4.03;;;1.30;;
44642;SDS011;33930;-34.276;150.954;2022-12-22T03:39:15;6.82;;;1.17;;
44642;SDS011;33930;-34.276;150.954;2022-12-22T03:41:43;10.05;;;1.70;;
44642;SDS011;33930;-34.276;150.954;2022-12-22T03:44:28;17.38;;;2.05;;
44642;SDS011;33930;-34.276;150.954;2022-12-22T03:47:13;9.13;;;1.33;;
44642;SDS011;33930;-34.276;150.954;2022-12-22T03:49:41;9.45;;;1.63;;
44642;SDS011;33930;-34.276;150.954;2022-12-22T03:52:08;9.77;;;1.90;;
44642;SDS011;33930;-34.276;150.954;2022-12-22T03:54:36;9.85;;;1.80;;
44642;SDS011;33930;-34.276;150.954;2022-12-22T03:57:03;12.38;;;1.90;;
44642;SDS011;33930;-34.276;150.954;2022-12-22T03:59:30;13.13;;;2.17;;
44642;SDS011;33930;-34.276;150.954;2022-12-22T04:01:58;10.25;;;1.90;;
44642;SDS011;33930;-34.276;150.954;2022-12-22T04:04:25;14.30;;;2.47;;
44642;SDS011;33930;-34.276;150.954;2022-12-22T04:06:52;8.70;;;1.58;;
44642;SDS011;33930;-34.276;150.954;2022-12-22T04:09:20;10.95;;;1.83;;
44642;SDS011;33930;-34.276;150.954;2022-12-22T04:11:49;12.30;;;2.38;;
44642;SDS011;33930;-34.276;150.954;2022-12-22T04:14:34;6.03;;;1.33;;
44642;SDS011;33930;-34.276;150.954;2022-12-22T04:17:02;4.88;;;1.23;;
44642;SDS011;33930;-34.276;150.954;2022-12-22T04:19:31;11.50;;;1.42;;
44642;SDS011;33930;-34.276;150.954;2022-12-22T04:21:58;8.40;;;1.60;;
44642;SDS011;33930;-34.276;150.954;2022-12-22T04:24:26;11.75;;;1.92;;
44642;SDS011;33930;-34.276;150.954;2022-12-22T04:26:53;13.90;;;2.92;;
44642;SDS011;33930;-34.276;150.954;2022-12-22T04:29:20;17.63;;;3.47;;
44642;SDS011;33930;-34.276;150.954;2022-12-22T04:31:48;19.25;;;2.35;;
44642;SDS011;33930;-34.276;150.954;2022-12-22T04:34:15;12.85;;;1.70;;
44642;SDS011;33930;-34.276;150.954;2022-12-22T04:36:42;7.75;;;1.88;;
44642;SDS011;33930;-34.276;150.954;2022-12-22T04:39:10;7.97;;;1.92;;
44642;SDS011;33930;-34.276;150.954;2022-12-22T04:41:37;7.85;;;1.55;;
44642;SDS011;33930;-34.276;150.954;2022-12-22T04:44:04;5.43;;;1.13;;
44642;SDS011;33930;-34.276;150.954;2022-12-22T04:46:32;10.20;;;1.55;;
44642;SDS011;33930;-34.276;150.954;2022-12-22T04:48:59;8.43;;;1.50;;
44642;SDS011;33930;-34.276;150.954;2022-12-22T04:51:27;11.10;;;1.25;;
44642;SDS011;33930;-34.276;150.954;2022-12-22T04:53:54;13.90;;;2.00;;
44642;SDS011;33930;-34.276;150.954;2022-12-22T04:56:22;13.88;;;2.45;;
44642;SDS011;33930;-34.276;150.954;2022-12-22T04:58:49;7.75;;;1.35;;
44642;SDS011;33930;-34.276;150.954;2022-12-22T05:01:16;14.38;;;1.85;;
44642;SDS011;33930;-34.276;150.954;2022-12-22T05:03:47;5.45;;;1.15;;
44642;SDS011;33930;-34.276;150.954;2022-12-22T05:06:14;4.13;;;1.00;;
44642;SDS011;33930;-34.276;150.954;2022-12-22T05:08:42;10.38;;;1.27;;
44642;SDS011;33930;-34.276;150.954;2022-12-22T05:11:09;14.50;;;2.05;;
44642;SDS011;33930;-34.276;150.954;2022-12-22T05:13:36;13.43;;;2.00;;
44642;SDS011;33930;-34.276;150.954;2022-12-22T05:16:08;11.02;;;1.80;;
44642;SDS011;33930;-34.276;150.954;2022-12-22T05:18:36;6.90;;;1.23;;
44642;SDS011;33930;-34.276;150.954;2022-12-22T05:21:14;11.48;;;1.88;;
44642;SDS011;33930;-34.276;150.954;2022-12-22T05:23:43;12.52;;;2.25;;
44642;SDS011;33930;-34.276;150.954;2022-12-22T05:26:11;7.53;;;1.42;;
44642;SDS011;33930;-34.276;150.954;2022-12-22T05:28:40;8.88;;;1.50;;
44642;SDS011;33930;-34.276;150.954;2022-12-22T05:31:09;7.25;;;1.00;;
44642;SDS011;33930;-34.276;150.954;2022-12-22T05:33:41;5.30;;;1.43;;
44642;SDS011;33930;-34.276;150.954;2022-12-22T05:36:08;5.07;;;1.10;;
44642;SDS011;33930;-34.276;150.954;2022-12-22T05:38:35;6.20;;;1.30;;
44642;SDS011;33930;-34.276;150.954;2022-12-22T05:41:03;9.05;;;2.47;;
44642;SDS011;33930;-34.276;150.954;2022-12-22T05:43:31;9.40;;;1.00;;
44642;SDS011;33930;-34.276;150.954;2022-12-22T05:46:06;4.88;;;0.95;;
44642;SDS011;33930;-34.276;150.954;2022-12-22T05:48:35;5.57;;;1.00;;
44642;SDS011;33930;-34.276;150.954;2022-12-22T05:51:02;7.63;;;1.40;;
44642;SDS011;33930;-34.276;150.954;2022-12-22T05:53:30;4.30;;;0.75;;
44642;SDS011;33930;-34.276;150.954;2022-12-22T05:55:57;5.70;;;1.08;;
44642;SDS011;33930;-34.276;150.954;2022-12-22T05:58:25;6.82;;;1.30;;
44642;SDS011;33930;-34.276;150.954;2022-12-22T06:00:54;10.23;;;2.10;;
44642;SDS011;33930;-34.276;150.954;2022-12-22T06:03:23;7.30;;;1.77;;
44642;SDS011;33930;-34.276;150.954;2022-12-22T06:05:52;11.50;;;4.68;;
44642;SDS011;33930;-34.276;150.954;2022-12-22T06:08:20;12.15;;;5.80;;
44642;SDS011;33930;-34.276;150.954;2022-12-22T06:10:47;6.53;;;1.95;;
44642;SDS011;33930;-34.276;150.954;2022-12-22T06:13:15;10.50;;;1.88;;
44642;SDS011;33930;-34.276;150.954;2022-12-22T06:15:42;5.63;;;1.70;;
44642;SDS011;33930;-34.276;150.954;2022-12-22T06:18:10;9.48;;;1.23;;
44642;SDS011;33930;-34.276;150.954;2022-12-22T06:20:37;13.93;;;2.35;;
44642;SDS011;33930;-34.276;150.954;2022-12-22T06:23:04;4.28;;;2.17;;
44642;SDS011;33930;-34.276;150.954;2022-12-22T06:25:32;9.13;;;3.05;;
44642;SDS011;33930;-34.276;150.954;2022-12-22T06:27:59;12.13;;;2.97;;
44642;SDS011;33930;-34.276;150.954;2022-12-22T06:30:26;8.88;;;3.33;;
44642;SDS011;33930;-34.276;150.954;2022-12-22T06:32:54;14.70;;;6.13;;
44642;SDS011;33930;-34.276;150.954;2022-12-22T06:35:21;7.25;;;1.58;;
44642;SDS011;33930;-34.276;150.954;2022-12-22T06:37:48;5.72;;;1.33;;
44642;SDS011;33930;-34.276;150.954;2022-12-22T06:40:16;5.65;;;1.40;;
44642;SDS011;33930;-34.276;150.954;2022-12-22T06:42:43;8.15;;;1.40;;
44642;SDS011;33930;-34.276;150.954;2022-12-22T06:45:28;5.97;;;0.70;;
44642;SDS011;33930;-34.276;150.954;2022-12-22T06:47:55;3.47;;;1.00;;
44642;SDS011;33930;-34.276;150.954;2022-12-22T06:50:23;3.30;;;0.60;;
44642;SDS011;33930;-34.276;150.954;2022-12-22T06:52:50;4.70;;;0.95;;
44642;SDS011;33930;-34.276;150.954;2022-12-22T06:55:17;7.00;;;1.08;;
44642;SDS011;33930;-34.276;150.954;2022-12-22T06:57:45;6.07;;;1.33;;
44642;SDS011;33930;-34.276;150.954;2022-12-22T07:00:12;4.28;;;1.08;;
44642;SDS011;33930;-34.276;150.954;2022-12-22T07:02:40;6.20;;;1.23;;
44642;SDS011;33930;-34.276;150.954;2022-12-22T07:05:07;5.88;;;0.60;;
44642;SDS011;33930;-34.276;150.954;2022-12-22T07:07:35;2.40;;;0.60;;
44642;SDS011;33930;-34.276;150.954;2022-12-22T07:10:03;11.90;;;4.78;;
44642;SDS011;33930;-34.276;150.954;2022-12-22T07:12:30;16.55;;;8.35;;
44642;SDS011;33930;-34.276;150.954;2022-12-22T07:14:58;11.82;;;4.93;;
44642;SDS011;33930;-34.276;150.954;2022-12-22T07:17:25;9.50;;;4.60;;
44642;SDS011;33930;-34.276;150.954;2022-12-22T07:19:52;16.92;;;7.72;;
44642;SDS011;33930;-34.276;150.954;2022-12-22T07:22:20;15.02;;;6.97;;
44642;SDS011;33930;-34.276;150.954;2022-12-22T07:24:47;19.63;;;4.80;;
44642;SDS011;33930;-34.276;150.954;2022-12-22T07:27:14;14.60;;;5.97;;
44642;SDS011;33930;-34.276;150.954;2022-12-22T07:29:42;14.27;;;3.83;;
44642;SDS011;33930;-34.276;150.954;2022-12-22T07:32:09;10.20;;;2.90;;
44642;SDS011;33930;-34.276;150.954;2022-12-22T07:34:36;2.58;;;0.85;;
44642;SDS011;33930;-34.276;150.954;2022-12-22T07:37:03;4.55;;;0.75;;
44642;SDS011;33930;-34.276;150.954;2022-12-22T07:39:31;4.00;;;0.90;;
44642;SDS011;33930;-34.276;150.954;2022-12-22T07:41:58;3.03;;;0.55;;
44642;SDS011;33930;-34.276;150.954;2022-12-22T07:44:43;2.47;;;0.88;;
44642;SDS011;33930;-34.276;150.954;2022-12-22T07:47:11;3.70;;;0.65;;
44642;SDS011;33930;-34.276;150.954;2022-12-22T07:49:38;2.45;;;0.65;;
44642;SDS011;33930;-34.276;150.954;2022-12-22T07:52:23;3.08;;;0.80;;
44642;SDS011;33930;-34.276;150.954;2022-12-22T07:54:51;6.47;;;0.90;;
44642;SDS011;33930;-34.276;150.954;2022-12-22T07:57:18;6.07;;;1.13;;
44642;SDS011;33930;-34.276;150.954;2022-12-22T07:59:45;6.30;;;1.60;;
44642;SDS011;33930;-34.276;150.954;2022-12-22T08:02:13;4.72;;;1.55;;
44642;SDS011;33930;-34.276;150.954;2022-12-22T08:04:40;7.75;;;1.38;;
44642;SDS011;33930;-34.276;150.954;2022-12-22T08:07:07;3.45;;;0.90;;
44642;SDS011;33930;-34.276;150.954;2022-12-22T08:09:35;3.47;;;1.00;;
44642;SDS011;33930;-34.276;150.954;2022-12-22T08:12:02;5.10;;;1.13;;
44642;SDS011;33930;-34.276;150.954;2022-12-22T08:14:29;2.90;;;0.90;;
44642;SDS011;33930;-34.276;150.954;2022-12-22T08:16:57;4.50;;;0.80;;
44642;SDS011;33930;-34.276;150.954;2022-12-22T08:19:24;3.60;;;0.80;;
44642;SDS011;33930;-34.276;150.954;2022-12-22T08:21:51;3.65;;;0.63;;
44642;SDS011;33930;-34.276;150.954;2022-12-22T08:24:19;5.50;;;0.70;;
44642;SDS011;33930;-34.276;150.954;2022-12-22T08:26:47;1.52;;;0.55;;
44642;SDS011;33930;-34.276;150.954;2022-12-22T08:29:22;3.42;;;0.70;;
44642;SDS011;33930;-34.276;150.954;2022-12-22T08:31:55;6.10;;;0.63;;
44642;SDS011;33930;-34.276;150.954;2022-12-22T08:34:22;2.85;;;0.70;;
44642;SDS011;33930;-34.276;150.954;2022-12-22T08:36:51;3.05;;;0.73;;
44642;SDS011;33930;-34.276;150.954;2022-12-22T08:39:21;4.38;;;1.02;;
44642;SDS011;33930;-34.276;150.954;2022-12-22T08:41:50;7.97;;;1.20;;
44642;SDS011;33930;-34.276;150.954;2022-12-22T08:44:25;3.22;;;0.68;;
44642;SDS011;33930;-34.276;150.954;2022-12-22T08:46:54;2.75;;;0.70;;
44642;SDS011;33930;-34.276;150.954;2022-12-22T08:49:23;3.58;;;0.70;;
44642;SDS011;33930;-34.276;150.954;2022-12-22T08:51:51;4.18;;;0.98;;
44642;SDS011;33930;-34.276;150.954;2022-12-22T08:54:19;2.88;;;0.68;;
44642;SDS011;33930;-34.276;150.954;2022-12-22T08:56:47;4.30;;;0.63;;
44642;SDS011;33930;-34.276;150.954;2022-12-22T08:59:15;4.00;;;0.77;;
44642;SDS011;33930;-34.276;150.954;2022-12-22T09:01:44;6.90;;;0.77;;
44642;SDS011;33930;-34.276;150.954;2022-12-22T09:04:16;6.97;;;1.08;;
44642;SDS011;33930;-34.276;150.954;2022-12-22T09:06:44;2.25;;;0.60;;
44642;SDS011;33930;-34.276;150.954;2022-12-22T09:09:13;7.18;;;1.08;;
44642;SDS011;33930;-34.276;150.954;2022-12-22T09:11:41;1.45;;;0.40;;
44642;SDS011;33930;-34.276;150.954;2022-12-22T09:14:09;7.35;;;0.95;;
44642;SDS011;33930;-34.276;150.954;2022-12-22T09:16:37;5.57;;;0.95;;
44642;SDS011;33930;-34.276;150.954;2022-12-22T09:19:05;4.82;;;0.65;;
44642;SDS011;33930;-34.276;150.954;2022-12-22T09:21:33;6.40;;;0.88;;
44642;SDS011;33930;-34.276;150.954;2022-12-22T09:24:01;4.85;;;0.75;;
44642;SDS011;33930;-34.276;150.954;2022-12-22T09:26:34;4.80;;;0.60;;
44642;SDS011;33930;-34.276;150.954;2022-12-22T09:29:01;3.42;;;0.68;;
44642;SDS011;33930;-34.276;150.954;2022-12-22T09:31:30;1.92;;;0.60;;
44642;SDS011;33930;-34.276;150.954;2022-12-22T09:33:58;2.20;;;0.75;;
44642;SDS011;33930;-34.276;150.954;2022-12-22T09:36:27;2.13;;;0.75;;
44642;SDS011;33930;-34.276;150.954;2022-12-22T09:38:56;1.30;;;0.85;;
44642;SDS011;33930;-34.276;150.954;2022-12-22T09:41:30;2.72;;;0.70;;
44642;SDS011;33930;-34.276;150.954;2022-12-22T09:44:03;5.97;;;1.10;;
44642;SDS011;33930;-34.276;150.954;2022-12-22T09:46:34;3.50;;;0.63;;
44642;SDS011;33930;-34.276;150.954;2022-12-22T09:49:04;5.80;;;1.15;;
44642;SDS011;33930;-34.276;150.954;2022-12-22T09:51:39;4.20;;;0.80;;
44642;SDS011;33930;-34.276;150.954;2022-12-22T09:54:13;3.83;;;0.82;;
44642;SDS011;33930;-34.276;150.954;2022-12-22T09:56:40;3.95;;;1.02;;
44642;SDS011;33930;-34.276;150.954;2022-12-22T09:59:09;6.38;;;0.73;;
44642;SDS011;33930;-34.276;150.954;2022-12-22T10:07:25;5.10;;;1.00;;
44642;SDS011;33930;-34.276;150.954;2022-12-22T10:09:54;2.97;;;0.80;;
44642;SDS011;33930;-34.276;150.954;2022-12-22T10:12:24;3.25;;;0.90;;
44642;SDS011;33930;-34.276;150.954;2022-12-22T10:14:53;8.95;;;0.90;;
44642;SDS011;33930;-34.276;150.954;2022-12-22T10:17:24;12.15;;;1.38;;
44642;SDS011;33930;-34.276;150.954;2022-12-22T10:20:05;2.50;;;0.80;;
44642;SDS011;33930;-34.276;150.954;2022-12-22T10:22:56;1.90;;;0.50;;
44642;SDS011;33930;-34.276;150.954;2022-12-22T10:25:32;8.88;;;1.00;;
44642;SDS011;33930;-34.276;150.954;2022-12-22T10:28:09;7.50;;;1.60;;
44642;SDS011;33930;-34.276;150.954;2022-12-22T10:30:42;7.70;;;0.80;;
44642;SDS011;33930;-34.276;150.954;2022-12-22T10:33:18;6.90;;;1.38;;
44642;SDS011;33930;-34.276;150.954;2022-12-22T10:40:52;10.38;;;2.55;;
44642;SDS011;33930;-34.276;150.954;2022-12-22T10:43:25;5.75;;;1.10;;
44642;SDS011;33930;-34.276;150.954;2022-12-22T10:45:59;3.83;;;1.10;;
44642;SDS011;33930;-34.276;150.954;2022-12-22T10:48:32;5.72;;;1.08;;
44642;SDS011;33930;-34.276;150.954;2022-12-22T10:51:01;4.38;;;1.00;;
44642;SDS011;33930;-34.276;150.954;2022-12-22T10:53:38;5.13;;;1.05;;
44642;SDS011;33930;-34.276;150.954;2022-12-22T10:56:07;10.13;;;1.25;;
44642;SDS011;33930;-34.276;150.954;2022-12-22T10:58:50;5.22;;;1.40;;
44642;SDS011;33930;-34.276;150.954;2022-12-22T11:01:23;3.03;;;0.95;;
44642;SDS011;33930;-34.276;150.954;2022-12-22T11:03:52;3.85;;;1.60;;
44642;SDS011;33930;-34.276;150.954;2022-12-22T11:06:19;5.15;;;1.00;;
44642;SDS011;33930;-34.276;150.954;2022-12-22T11:08:47;3.80;;;1.73;;
44642;SDS011;33930;-34.276;150.954;2022-12-22T11:11:25;8.05;;;1.30;;
44642;SDS011;33930;-34.276;150.954;2022-12-22T11:19:39;5.30;;;1.15;;
44642;SDS011;33930;-34.276;150.954;2022-12-22T11:27:46;7.93;;;1.52;;
44642;SDS011;33930;-34.276;150.954;2022-12-22T11:30:22;3.55;;;0.93;;
44642;SDS011;33930;-34.276;150.954;2022-12-22T11:36:01;5.38;;;1.10;;
44642;SDS011;33930;-34.276;150.954;2022-12-22T12:00:17;2.42;;;1.30;;
44642;SDS011;33930;-34.276;150.954;2022-12-22T12:10:55;8.25;;;1.85;;
44642;SDS011;33930;-34.276;150.954;2022-12-22T12:13:59;8.07;;;1.38;;
44642;SDS011;33930;-34.276;150.954;2022-12-22T12:16:38;6.22;;;1.75;;
44642;SDS011;33930;-34.276;150.954;2022-12-22T12:22:04;4.72;;;1.35;;
44642;SDS011;33930;-34.276;150.954;2022-12-22T12:25:01;4.60;;;1.80;;
44642;SDS011;33930;-34.276;150.954;2022-12-22T12:33:26;8.20;;;2.65;;
44642;SDS011;33930;-34.276;150.954;2022-12-22T12:36:23;4.55;;;1.50;;
44642;SDS011;33930;-34.276;150.954;2022-12-22T12:44:55;4.18;;;1.75;;
44642;SDS011;33930;-34.276;150.954;2022-12-22T12:47:31;13.60;;;2.00;;
44642;SDS011;33930;-34.276;150.954;2022-12-22T12:55:29;8.63;;;1.75;;
44642;SDS011;33930;-34.276;150.954;2022-12-22T13:01:08;7.65;;;2.35;;
44642;SDS011;33930;-34.276;150.954;2022-12-22T13:03:38;8.80;;;1.83;;
44642;SDS011;33930;-34.276;150.954;2022-12-22T13:06:08;10.68;;;2.30;;
44642;SDS011;33930;-34.276;150.954;2022-12-22T13:11:33;7.07;;;2.47;;
44642;SDS011;33930;-34.276;150.954;2022-12-22T13:14:02;3.90;;;1.92;;
44642;SDS011;33930;-34.276;150.954;2022-12-22T13:16:31;9.82;;;2.63;;
44642;SDS011;33930;-34.276;150.954;2022-12-22T13:19:09;7.18;;;2.05;;
44642;SDS011;33930;-34.276;150.954;2022-12-22T13:21:43;7.07;;;1.92;;
44642;SDS011;33930;-34.276;150.954;2022-12-22T13:24:23;9.07;;;2.45;;
44642;SDS011;33930;-34.276;150.954;2022-12-22T13:26:59;9.50;;;2.10;;
44642;SDS011;33930;-34.276;150.954;2022-12-22T13:29:38;6.43;;;1.83;;
44642;SDS011;33930;-34.276;150.954;2022-12-22T13:32:27;1.70;;;1.38;;
44642;SDS011;33930;-34.276;150.954;2022-12-22T13:35:03;6.03;;;1.88;;
44642;SDS011;33930;-34.276;150.954;2022-12-22T13:37:46;3.40;;;1.52;;
44642;SDS011;33930;-34.276;150.954;2022-12-22T13:42:53;4.90;;;1.70;;
44642;SDS011;33930;-34.276;150.954;2022-12-22T13:48:16;6.47;;;2.22;;
44642;SDS011;33930;-34.276;150.954;2022-12-22T13:51:08;2.80;;;1.90;;
44642;SDS011;33930;-34.276;150.954;2022-12-22T13:53:48;6.88;;;1.33;;
44642;SDS011;33930;-34.276;150.954;2022-12-22T13:57:04;5.60;;;1.85;;
44642;SDS011;33930;-34.276;150.954;2022-12-22T14:02:00;6.30;;;1.98;;
44642;SDS011;33930;-34.276;150.954;2022-12-22T14:04:40;5.15;;;2.15;;
44642;SDS011;33930;-34.276;150.954;2022-12-22T14:09:45;6.90;;;2.38;;
44642;SDS011;33930;-34.276;150.954;2022-12-22T14:12:16;5.38;;;2.22;;
44642;SDS011;33930;-34.276;150.954;2022-12-22T14:14:50;10.95;;;2.28;;
44642;SDS011;33930;-34.276;150.954;2022-12-22T14:17:25;8.93;;;2.47;;
44642;SDS011;33930;-34.276;150.954;2022-12-22T14:19:59;6.82;;;1.92;;
44642;SDS011;33930;-34.276;150.954;2022-12-22T14:22:54;7.63;;;2.42;;
44642;SDS011;33930;-34.276;150.954;2022-12-22T14:25:55;5.70;;;1.73;;
44642;SDS011;33930;-34.276;150.954;2022-12-22T14:28:31;5.50;;;1.80;;
44642;SDS011;33930;-34.276;150.954;2022-12-22T14:31:04;3.67;;;1.42;;
44642;SDS011;33930;-34.276;150.954;2022-12-22T14:33:33;8.55;;;2.60;;
44642;SDS011;33930;-34.276;150.954;2022-12-22T14:38:47;5.20;;;1.63;;
44642;SDS011;33930;-34.276;150.954;2022-12-22T14:41:24;6.25;;;1.67;;
44642;SDS011;33930;-34.276;150.954;2022-12-22T14:44:15;5.88;;;1.98;;
44642;SDS011;33930;-34.276;150.954;2022-12-22T14:46:44;6.45;;;2.80;;
44642;SDS011;33930;-34.276;150.954;2022-12-22T14:49:26;8.13;;;2.58;;
44642;SDS011;33930;-34.276;150.954;2022-12-22T14:51:54;5.13;;;2.15;;
44642;SDS011;33930;-34.276;150.954;2022-12-22T14:54:24;5.07;;;1.90;;
44642;SDS011;33930;-34.276;150.954;2022-12-22T14:56:55;6.55;;;1.88;;
44642;SDS011;33930;-34.276;150.954;2022-12-22T14:59:28;6.00;;;1.42;;
44642;SDS011;33930;-34.276;150.954;2022-12-22T15:01:57;1.92;;;1.33;;
44642;SDS011;33930;-34.276;150.954;2022-12-22T15:04:43;7.93;;;2.00;;
44642;SDS011;33930;-34.276;150.954;2022-12-22T15:07:15;6.13;;;1.35;;
44642;SDS011;33930;-34.276;150.954;2022-12-22T15:09:45;3.65;;;1.30;;
44642;SDS011;33930;-34.276;150.954;2022-12-22T15:12:13;4.93;;;1.70;;
44642;SDS011;33930;-34.276;150.954;2022-12-22T15:14:43;4.25;;;1.70;;
44642;SDS011;33930;-34.276;150.954;2022-12-22T15:17:17;3.15;;;1.55;;
44642;SDS011;33930;-34.276;150.954;2022-12-22T15:19:47;4.93;;;1.85;;
44642;SDS011;33930;-34.276;150.954;2022-12-22T15:22:15;7.70;;;1.50;;
44642;SDS011;33930;-34.276;150.954;2022-12-22T15:24:43;3.55;;;1.33;;
44642;SDS011;33930;-34.276;150.954;2022-12-22T15:27:11;9.00;;;1.80;;
44642;SDS011;33930;-34.276;150.954;2022-12-22T15:29:39;7.18;;;1.73;;
44642;SDS011;33930;-34.276;150.954;2022-12-22T15:32:12;5.13;;;1.45;;
44642;SDS011;33930;-34.276;150.954;2022-12-22T15:34:40;2.35;;;1.25;;
44642;SDS011;33930;-34.276;150.954;2022-12-22T15:37:10;6.95;;;1.30;;
44642;SDS011;33930;-34.276;150.954;2022-12-22T15:39:38;7.35;;;1.30;;
44642;SDS011;33930;-34.276;150.954;2022-12-22T15:42:05;5.60;;;1.38;;
44642;SDS011;33930;-34.276;150.954;2022-12-22T15:44:32;7.63;;;1.30;;
44642;SDS011;33930;-34.276;150.954;2022-12-22T15:47:00;4.00;;;1.33;;
44642;SDS011;33930;-34.276;150.954;2022-12-22T15:49:27;3.78;;;1.25;;
44642;SDS011;33930;-34.276;150.954;2022-12-22T15:51:57;5.13;;;1.20;;
44642;SDS011;33930;-34.276;150.954;2022-12-22T15:54:28;5.68;;;1.35;;
44642;SDS011;33930;-34.276;150.954;2022-12-22T15:56:57;4.32;;;1.13;;
44642;SDS011;33930;-34.276;150.954;2022-12-22T15:59:26;4.30;;;1.58;;
44642;SDS011;33930;-34.276;150.954;2022-12-22T16:01:54;4.38;;;1.55;;
44642;SDS011;33930;-34.276;150.954;2022-12-22T16:04:22;5.88;;;2.08;;
44642;SDS011;33930;-34.276;150.954;2022-12-22T16:06:52;6.25;;;1.40;;
44642;SDS011;33930;-34.276;150.954;2022-12-22T16:09:24;3.05;;;0.98;;
44642;SDS011;33930;-34.276;150.954;2022-12-22T16:11:57;3.88;;;1.40;;
44642;SDS011;33930;-34.276;150.954;2022-12-22T16:14:24;2.90;;;1.10;;
44642;SDS011;33930;-34.276;150.954;2022-12-22T16:16:51;6.38;;;1.48;;
44642;SDS011;33930;-34.276;150.954;2022-12-22T16:19:19;4.63;;;1.80;;
44642;SDS011;33930;-34.276;150.954;2022-12-22T16:21:47;5.28;;;1.58;;
44642;SDS011;33930;-34.276;150.954;2022-12-22T16:24:22;5.25;;;1.85;;
44642;SDS011;33930;-34.276;150.954;2022-12-22T16:26:58;5.55;;;1.63;;
44642;SDS011;33930;-34.276;150.954;2022-12-22T16:29:27;7.00;;;1.67;;
44642;SDS011;33930;-34.276;150.954;2022-12-22T16:32:01;3.95;;;1.48;;